createdAt,value
2019-01-14T00:00:30.971Z,0
2019-01-14T00:01:41.067Z,0
2019-01-14T00:02:51.004Z,0
2019-01-14T00:04:01.470Z,0
2019-01-14T00:05:11.561Z,0
2019-01-14T00:06:21.628Z,0
2019-01-14T00:07:31.283Z,0
2019-01-14T00:08:41.402Z,0
2019-01-14T00:09:51.471Z,0
2019-01-14T00:11:01.534Z,0
2019-01-14T00:12:11.629Z,0
2019-01-14T00:13:21.725Z,0
2019-01-14T00:14:31.810Z,0
2019-01-14T00:15:41.846Z,0
2019-01-14T00:16:52.193Z,0
2019-01-14T00:18:02.255Z,0
2019-01-14T00:19:12.310Z,0
2019-01-14T00:20:22.480Z,0
2019-01-14T00:21:32.298Z,0
2019-01-14T00:22:42.167Z,0
2019-01-14T00:23:52.421Z,0
2019-01-14T00:25:02.408Z,0
2019-01-14T00:26:13.429Z,0
2019-01-14T00:27:23.547Z,0
2019-01-14T00:28:33.633Z,0
2019-01-14T00:29:43.463Z,0
2019-01-14T00:30:53.274Z,0
2019-01-14T00:32:03.344Z,0
2019-01-14T00:33:13.408Z,0
2019-01-14T00:34:23.498Z,0
2019-01-14T00:35:33.310Z,0
2019-01-14T00:36:43.491Z,0
2019-01-14T00:37:53.554Z,0
2019-01-14T00:39:03.617Z,0
2019-01-14T00:40:13.681Z,0
2019-01-14T00:41:23.531Z,0
2019-01-14T00:42:33.654Z,0
2019-01-14T00:43:43.748Z,0
2019-01-14T00:44:53.809Z,0
2019-01-14T00:46:03.904Z,0
2019-01-14T00:47:13.959Z,0
2019-01-14T00:48:24.022Z,0
2019-01-14T00:49:34.098Z,0
2019-01-14T00:50:44.175Z,0
2019-01-14T00:51:54.254Z,0
2019-01-14T00:53:04.692Z,0
2019-01-14T00:54:15.298Z,0
2019-01-14T00:55:25.357Z,0
2019-01-14T00:56:35.428Z,0
2019-01-14T00:57:44.977Z,0
2019-01-14T00:58:55.137Z,0
2019-01-14T01:00:08.457Z,0
2019-01-14T01:01:18.488Z,0
2019-01-14T01:02:28.289Z,0
2019-01-14T01:03:38.329Z,0
2019-01-14T01:04:48.384Z,0
2019-01-14T01:05:58.901Z,0
2019-01-14T01:07:09.066Z,0
2019-01-14T01:08:19.169Z,0
2019-01-14T01:09:29.230Z,0
2019-01-14T01:10:39.288Z,0
2019-01-14T01:11:49.124Z,0
2019-01-14T01:12:59.194Z,0
2019-01-14T01:14:09.257Z,0
2019-01-14T01:15:19.315Z,0
2019-01-14T01:16:29.122Z,0
2019-01-14T01:17:39.330Z,0
2019-01-14T01:18:49.404Z,0
2019-01-14T01:19:59.461Z,0
2019-01-14T01:21:09.542Z,0
2019-01-14T01:22:19.713Z,0
2019-01-14T01:23:29.524Z,0
2019-01-14T01:24:39.653Z,0
2019-01-14T01:25:49.477Z,0
2019-01-14T01:26:59.279Z,0
2019-01-14T01:28:09.331Z,0
2019-01-14T01:29:19.393Z,0
2019-01-14T01:30:29.498Z,0
2019-01-14T01:31:39.576Z,0
2019-01-14T01:32:49.648Z,0
2019-01-14T01:33:59.448Z,0
2019-01-14T01:35:08.986Z,0
2019-01-14T01:36:19.112Z,0
2019-01-14T01:37:29.166Z,0
2019-01-14T01:38:38.989Z,0
2019-01-14T01:39:48.849Z,0
2019-01-14T01:40:58.929Z,0
2019-01-14T01:42:08.773Z,0
2019-01-14T01:43:18.851Z,0
2019-01-14T01:44:28.652Z,0
2019-01-14T01:45:39.097Z,0
2019-01-14T01:46:48.932Z,0
2019-01-14T01:47:58.732Z,0
2019-01-14T01:49:10.452Z,0
2019-01-14T01:50:20.972Z,0
2019-01-14T01:51:31.027Z,0
2019-01-14T01:52:40.837Z,0
2019-01-14T01:53:50.962Z,0
2019-01-14T01:55:01.024Z,0
2019-01-14T01:56:11.147Z,0
2019-01-14T01:57:22.019Z,0
2019-01-14T01:58:32.132Z,0
2019-01-14T01:59:41.931Z,0
2019-01-14T02:00:51.987Z,0
2019-01-14T02:02:02.068Z,0
2019-01-14T02:03:12.177Z,0
2019-01-14T02:04:22.256Z,0
2019-01-14T02:05:32.328Z,0
2019-01-14T02:06:48.489Z,0
2019-01-14T02:07:58.595Z,0
2019-01-14T02:09:10.555Z,0
2019-01-14T02:10:20.621Z,0
2019-01-14T02:11:30.682Z,0
2019-01-14T02:12:40.494Z,0
2019-01-14T02:13:50.589Z,0
2019-01-14T02:15:00.641Z,0
2019-01-14T02:16:10.698Z,0
2019-01-14T02:17:21.299Z,0
2019-01-14T02:18:31.378Z,0
2019-01-14T02:19:41.446Z,0
2019-01-14T02:20:51.257Z,0
2019-01-14T02:22:01.067Z,0
2019-01-14T02:23:11.696Z,0
2019-01-14T02:24:21.752Z,0
2019-01-14T02:25:31.548Z,0
2019-01-14T02:26:41.367Z,0
2019-01-14T02:27:51.671Z,0
2019-01-14T02:29:02.733Z,0
2019-01-14T02:30:12.837Z,0
2019-01-14T02:31:22.656Z,0
2019-01-14T02:32:32.730Z,0
2019-01-14T02:33:42.804Z,0
2019-01-14T02:34:52.922Z,0
2019-01-14T02:36:03.042Z,0
2019-01-14T02:37:13.116Z,0
2019-01-14T02:38:23.188Z,0
2019-01-14T02:39:33.246Z,0
2019-01-14T02:40:43.064Z,0
2019-01-14T02:41:52.866Z,0
2019-01-14T02:43:05.418Z,0
2019-01-14T02:44:15.472Z,0
2019-01-14T02:45:25.545Z,0
2019-01-14T02:46:36.052Z,0
2019-01-14T02:47:45.873Z,0
2019-01-14T02:48:55.941Z,0
2019-01-14T02:50:07.366Z,0
2019-01-14T02:51:17.321Z,0
2019-01-14T02:52:27.393Z,0
2019-01-14T02:53:37.465Z,0
2019-01-14T02:54:47.579Z,0
2019-01-14T02:55:57.654Z,0
2019-01-14T02:57:09.678Z,0
2019-01-14T02:58:19.741Z,0
2019-01-14T02:59:29.817Z,0
2019-01-14T03:00:39.888Z,0
2019-01-14T03:01:49.697Z,0
2019-01-14T03:02:59.531Z,0
2019-01-14T03:34:46.660Z,0
2019-01-14T03:35:56.714Z,0
2019-01-14T03:37:12.489Z,0
2019-01-14T03:38:22.622Z,0
2019-01-14T03:39:32.737Z,0
2019-01-14T03:40:42.791Z,0
2019-01-14T03:41:52.337Z,0
2019-01-14T03:43:02.367Z,0
2019-01-14T03:44:12.667Z,0
2019-01-14T03:45:22.729Z,0
2019-01-14T03:46:32.911Z,0
2019-01-14T03:47:42.983Z,0
2019-01-14T03:48:52.789Z,0
2019-01-14T03:50:02.870Z,0
2019-01-14T03:51:12.939Z,0
2019-01-14T03:52:23.027Z,0
2019-01-14T03:53:33.093Z,0
2019-01-14T03:54:43.169Z,0
2019-01-14T03:55:52.976Z,0
2019-01-14T03:57:02.777Z,0
2019-01-14T03:58:12.322Z,0
2019-01-14T03:59:22.374Z,0
2019-01-14T04:00:32.465Z,0
2019-01-14T04:01:42.037Z,0
2019-01-14T04:02:51.836Z,0
2019-01-14T04:04:01.944Z,0
2019-01-14T04:05:11.769Z,0
2019-01-14T04:06:21.827Z,0
2019-01-14T04:07:31.691Z,0
2019-01-14T04:08:41.562Z,0
2019-01-14T04:09:51.683Z,0
2019-01-14T04:11:01.752Z,0
2019-01-14T04:12:11.884Z,0
2019-01-14T04:13:22.271Z,0
2019-01-14T04:14:32.073Z,0
2019-01-14T04:15:42.408Z,0
2019-01-14T04:16:52.535Z,0
2019-01-14T04:18:02.607Z,0
2019-01-14T04:19:12.669Z,0
2019-01-14T04:20:22.513Z,0
2019-01-14T04:21:32.562Z,0
2019-01-14T04:22:42.368Z,0
2019-01-14T04:23:52.179Z,0
2019-01-14T04:25:02.125Z,0
2019-01-14T04:26:12.196Z,0
2019-01-14T04:27:22.341Z,0
2019-01-14T04:28:32.695Z,0
2019-01-14T04:29:42.856Z,0
2019-01-14T04:30:52.672Z,0
2019-01-14T04:32:02.732Z,0
2019-01-14T04:33:13.041Z,0
2019-01-14T04:34:23.115Z,0
2019-01-14T04:35:33.180Z,0
2019-01-14T04:36:43.222Z,0
2019-01-14T04:37:53.303Z,0
2019-01-14T04:39:05.902Z,0
2019-01-14T04:40:15.989Z,0
2019-01-14T04:41:26.062Z,0
2019-01-14T04:42:36.159Z,0
2019-01-14T04:43:46.257Z,0
2019-01-14T04:44:56.332Z,0
2019-01-14T04:46:06.194Z,0
2019-01-14T04:47:16.302Z,0
2019-01-14T04:48:27.281Z,0
2019-01-14T04:49:37.206Z,0
2019-01-14T04:50:47.005Z,0
2019-01-14T04:51:57.079Z,0
2019-01-14T04:53:07.156Z,0
2019-01-14T04:54:16.981Z,0
2019-01-14T04:55:26.782Z,0
2019-01-14T04:56:36.865Z,0
2019-01-14T04:57:47.045Z,0
2019-01-14T04:58:56.844Z,0
2019-01-14T05:00:07.762Z,0
2019-01-14T05:01:17.854Z,0
2019-01-14T05:02:27.668Z,0
2019-01-14T05:03:37.478Z,0
2019-01-14T05:04:47.288Z,0
2019-01-14T05:05:57.357Z,0
2019-01-14T05:07:10.561Z,0
2019-01-14T05:08:20.614Z,0
2019-01-14T05:09:32.230Z,0
2019-01-14T05:10:42.700Z,0
2019-01-14T05:11:52.787Z,0
2019-01-14T05:13:02.892Z,0
2019-01-14T05:14:13.012Z,0
2019-01-14T05:15:23.216Z,0
2019-01-14T05:16:33.020Z,0
2019-01-14T05:17:43.171Z,0
2019-01-14T05:18:52.725Z,0
2019-01-14T05:20:03.621Z,0
2019-01-14T05:21:13.267Z,0
2019-01-14T05:22:23.076Z,0
2019-01-14T05:23:32.883Z,0
2019-01-14T05:24:42.977Z,0
2019-01-14T05:25:53.149Z,0
2019-01-14T05:27:03.725Z,0
2019-01-14T05:28:13.016Z,0
2019-01-14T05:29:23.081Z,0
2019-01-14T05:30:32.954Z,0
2019-01-14T05:31:44.444Z,0
2019-01-14T05:32:54.546Z,0
2019-01-14T05:34:05.555Z,0
2019-01-14T05:35:15.646Z,0
2019-01-14T05:36:25.231Z,0
2019-01-14T05:37:42.125Z,0
2019-01-14T05:38:51.935Z,0
2019-01-14T05:40:03.610Z,0
2019-01-14T05:41:13.695Z,0
2019-01-14T05:42:23.771Z,0
2019-01-14T05:43:33.843Z,0
2019-01-14T05:44:43.921Z,0
2019-01-14T05:45:53.992Z,0
2019-01-14T05:47:04.078Z,0
2019-01-14T05:48:14.758Z,0
2019-01-14T05:49:24.815Z,0
2019-01-14T05:50:34.976Z,0
2019-01-14T05:51:44.765Z,0
2019-01-14T05:52:54.569Z,0
2019-01-14T05:54:04.619Z,0
2019-01-14T05:55:14.872Z,0
2019-01-14T05:56:24.942Z,0
2019-01-14T05:57:35.003Z,0
2019-01-14T05:58:45.126Z,0
2019-01-14T05:59:55.194Z,0
2019-01-14T06:01:05.291Z,0
2019-01-14T06:02:15.369Z,0
2019-01-14T06:03:25.174Z,0
2019-01-14T06:04:35.239Z,0
2019-01-14T06:05:45.526Z,0
2019-01-14T06:06:55.342Z,0
2019-01-14T06:08:08.016Z,0
2019-01-14T06:09:18.059Z,0
2019-01-14T06:10:28.127Z,0
2019-01-14T06:11:38.261Z,0
2019-01-14T06:12:48.639Z,0
2019-01-14T06:13:58.719Z,0
2019-01-14T06:15:08.785Z,0
2019-01-14T06:16:18.601Z,0
2019-01-14T06:17:28.689Z,0
2019-01-14T06:18:38.251Z,0
2019-01-14T06:19:48.317Z,0
2019-01-14T06:20:57.849Z,0
2019-01-14T06:22:07.930Z,0
2019-01-14T06:23:18.046Z,0
2019-01-14T06:24:27.846Z,0
2019-01-14T06:25:37.912Z,0
2019-01-14T06:26:48.217Z,0
2019-01-14T06:27:57.753Z,0
2019-01-14T06:29:08.671Z,0
2019-01-14T06:30:18.722Z,0
2019-01-14T06:31:29.017Z,0
2019-01-14T06:32:39.075Z,0
2019-01-14T06:33:49.385Z,0
2019-01-14T06:34:59.456Z,0
2019-01-14T06:36:09.580Z,0
2019-01-14T06:37:19.375Z,0
2019-01-14T06:38:29.535Z,0
2019-01-14T06:39:39.587Z,0
2019-01-14T06:40:49.378Z,0
2019-01-14T06:41:59.439Z,5
2019-01-14T06:43:09.253Z,5
2019-01-14T06:44:19.330Z,5
2019-01-14T06:45:29.376Z,5
2019-01-14T06:46:39.426Z,5
2019-01-14T06:47:49.574Z,5
2019-01-14T06:48:59.359Z,5
2019-01-14T06:50:10.270Z,5
2019-01-14T06:51:20.319Z,10
2019-01-14T06:52:30.368Z,10
2019-01-14T06:53:39.948Z,10
2019-01-14T06:54:50.023Z,10
2019-01-14T06:55:59.822Z,10
2019-01-14T06:57:09.593Z,10
2019-01-14T06:58:19.668Z,10
2019-01-14T06:59:29.469Z,15
2019-01-14T07:00:39.970Z,15
2019-01-14T07:01:49.769Z,15
2019-01-14T07:02:59.896Z,15
2019-01-14T07:04:10.962Z,15
2019-01-14T07:05:21.007Z,20
2019-01-14T07:06:31.916Z,20
2019-01-14T07:07:42.202Z,20
2019-01-14T07:08:52.258Z,25
2019-01-14T07:10:02.068Z,30
2019-01-14T07:11:11.600Z,30
2019-01-14T07:12:21.656Z,30
2019-01-14T07:13:31.714Z,30
2019-01-14T07:14:41.793Z,30
2019-01-14T07:15:51.650Z,35
2019-01-14T07:17:01.722Z,35
2019-01-14T07:18:11.524Z,40
2019-01-14T07:19:21.643Z,35
2019-01-14T07:20:31.719Z,40
2019-01-14T07:21:41.530Z,40
2019-01-14T07:22:51.886Z,45
2019-01-14T07:24:01.958Z,45
2019-01-14T07:25:12.051Z,40
2019-01-14T07:26:22.114Z,45
2019-01-14T07:27:32.382Z,40
2019-01-14T07:28:42.194Z,55
2019-01-14T07:29:52.321Z,55
2019-01-14T07:31:03.028Z,55
2019-01-14T07:32:12.839Z,65
2019-01-14T07:33:22.648Z,60
2019-01-14T07:34:32.756Z,55
2019-01-14T07:35:42.827Z,55
2019-01-14T07:36:52.616Z,50
2019-01-14T07:38:09.547Z,50
2019-01-14T07:39:19.620Z,50
2019-01-14T07:40:29.414Z,50
2019-01-14T07:41:39.488Z,45
2019-01-14T07:42:49.294Z,40
2019-01-14T07:43:59.343Z,40
2019-01-14T07:45:09.419Z,45
2019-01-14T07:46:19.476Z,45
2019-01-14T07:47:29.346Z,50
2019-01-14T07:48:39.623Z,55
2019-01-14T07:49:49.695Z,50
2019-01-14T07:50:59.742Z,50
2019-01-14T07:52:09.823Z,75
2019-01-14T07:53:19.889Z,80
2019-01-14T07:54:29.942Z,85
2019-01-14T07:55:39.989Z,75
2019-01-14T07:56:50.055Z,85
2019-01-14T07:58:00.127Z,85
2019-01-14T07:59:10.188Z,80
2019-01-14T08:00:21.000Z,60
2019-01-14T08:01:31.047Z,50
2019-01-14T08:02:41.321Z,55
2019-01-14T08:03:51.393Z,55
2019-01-14T08:05:01.854Z,55
2019-01-14T08:06:11.929Z,55
2019-01-14T08:07:21.985Z,55
2019-01-14T08:08:32.023Z,60
2019-01-14T08:09:42.095Z,75
2019-01-14T08:10:52.199Z,90
2019-01-14T08:12:03.229Z,90
2019-01-14T08:13:13.289Z,90
2019-01-14T08:14:23.915Z,90
2019-01-14T08:15:33.992Z,95
2019-01-14T08:16:43.569Z,95
2019-01-14T08:17:53.702Z,95
2019-01-14T08:19:05.117Z,95
2019-01-14T08:20:15.181Z,95
2019-01-14T08:21:25.252Z,95
2019-01-14T08:22:35.379Z,100
2019-01-14T08:23:45.486Z,100
2019-01-14T08:24:55.637Z,100
2019-01-14T08:26:08.242Z,100
2019-01-14T08:27:18.375Z,100
2019-01-14T08:28:28.022Z,100
2019-01-14T08:29:38.225Z,100
2019-01-14T08:30:47.807Z,100
2019-01-14T08:31:57.959Z,105
2019-01-14T08:33:08.080Z,105
2019-01-14T08:34:17.872Z,110
2019-01-14T08:35:28.113Z,120
2019-01-14T08:36:38.228Z,115
2019-01-14T08:37:48.134Z,110
2019-01-14T08:38:58.202Z,115
2019-01-14T08:40:08.322Z,115
2019-01-14T08:41:18.131Z,110
2019-01-14T08:42:28.001Z,110
2019-01-14T08:43:38.107Z,110
2019-01-14T08:44:48.186Z,110
2019-01-14T08:45:58.308Z,115
2019-01-14T08:47:09.903Z,115
2019-01-14T08:48:19.989Z,115
2019-01-14T08:49:30.049Z,115
2019-01-14T08:50:40.311Z,115
2019-01-14T08:51:50.472Z,115
2019-01-14T08:53:00.697Z,115
2019-01-14T08:54:10.763Z,120
2019-01-14T08:55:20.886Z,125
2019-01-14T08:56:30.962Z,130
2019-01-14T08:57:41.010Z,125
2019-01-14T08:58:50.573Z,125
2019-01-14T09:00:03.766Z,120
2019-01-14T09:01:13.869Z,120
2019-01-14T09:02:23.936Z,125
2019-01-14T09:03:33.995Z,125
2019-01-14T09:04:44.065Z,125
2019-01-14T09:05:53.865Z,125
2019-01-14T09:07:04.608Z,125
2019-01-14T09:08:14.235Z,125
2019-01-14T09:09:24.928Z,125
2019-01-14T09:10:35.075Z,125
2019-01-14T09:11:45.242Z,130
2019-01-14T09:12:55.306Z,130
2019-01-14T09:14:05.394Z,135
2019-01-14T09:15:15.747Z,135
2019-01-14T09:16:26.350Z,95
2019-01-14T09:17:36.520Z,175
2019-01-14T09:18:46.726Z,300
2019-01-14T09:19:56.790Z,100
2019-01-14T09:21:07.829Z,105
2019-01-14T09:22:18.192Z,105
2019-01-14T09:23:28.369Z,100
2019-01-14T09:24:38.559Z,105
2019-01-14T09:25:53.700Z,100
2019-01-14T09:27:04.021Z,115
2019-01-14T09:28:13.854Z,330
2019-01-14T09:29:23.720Z,185
2019-01-14T09:30:33.528Z,325
2019-01-14T09:31:43.341Z,100
2019-01-14T09:32:53.799Z,330
2019-01-14T09:34:04.066Z,110
2019-01-14T09:35:14.124Z,95
2019-01-14T09:36:24.207Z,95
2019-01-14T09:37:34.874Z,105
2019-01-14T09:38:45.665Z,100
2019-01-14T09:39:55.752Z,100
2019-01-14T09:41:06.503Z,175
2019-01-14T09:42:16.296Z,130
2019-01-14T09:43:26.352Z,110
2019-01-14T09:44:36.168Z,115
2019-01-14T09:45:45.971Z,180
2019-01-14T09:46:56.039Z,170
2019-01-14T09:48:07.944Z,155
2019-01-14T09:49:18.003Z,160
2019-01-14T09:50:28.305Z,95
2019-01-14T09:51:38.380Z,150
2019-01-14T09:52:48.556Z,155
2019-01-14T09:53:58.371Z,155
2019-01-14T09:55:12.869Z,155
2019-01-14T09:56:23.002Z,155
2019-01-14T09:57:34.610Z,155
2019-01-14T09:58:44.957Z,155
2019-01-14T09:59:55.014Z,155
2019-01-14T10:01:05.143Z,155
2019-01-14T10:02:15.211Z,155
2019-01-14T10:03:25.286Z,155
2019-01-14T10:04:35.104Z,155
2019-01-14T10:05:45.343Z,155
2019-01-14T10:06:55.396Z,160
2019-01-14T10:08:07.950Z,155
2019-01-14T10:09:18.163Z,160
2019-01-14T10:10:28.213Z,160
2019-01-14T10:11:38.020Z,165
2019-01-14T10:12:48.109Z,155
2019-01-14T10:13:58.023Z,150
2019-01-14T10:15:08.108Z,160
2019-01-14T10:16:18.430Z,155
2019-01-14T10:17:28.544Z,160
2019-01-14T10:18:38.165Z,160
2019-01-14T10:19:47.999Z,155
2019-01-14T10:20:58.003Z,105
2019-01-14T10:22:08.062Z,150
2019-01-14T10:23:18.150Z,150
2019-01-14T10:24:28.198Z,115
2019-01-14T10:25:38.262Z,100
2019-01-14T10:26:48.326Z,95
2019-01-14T10:27:57.908Z,95
2019-01-14T10:29:09.924Z,105
2019-01-14T10:30:19.989Z,110
2019-01-14T10:31:29.798Z,120
2019-01-14T10:32:39.896Z,100
2019-01-14T10:33:49.962Z,95
2019-01-14T10:35:00.092Z,95
2019-01-14T10:36:10.022Z,95
2019-01-14T10:37:25.320Z,95
2019-01-14T10:38:35.381Z,95
2019-01-14T10:39:45.176Z,95
2019-01-14T10:40:55.042Z,95
2019-01-14T10:42:09.943Z,95
2019-01-14T10:43:20.358Z,95
2019-01-14T10:44:30.239Z,85
2019-01-14T10:45:40.226Z,80
2019-01-14T10:46:50.398Z,85
2019-01-14T10:48:00.360Z,90
2019-01-14T10:49:14.230Z,95
2019-01-14T10:50:24.631Z,95
2019-01-14T10:51:34.739Z,100
2019-01-14T10:52:44.783Z,100
2019-01-14T10:53:54.882Z,120
2019-01-14T10:55:12.052Z,110
2019-01-14T10:56:22.242Z,105
2019-01-14T10:57:33.045Z,125
2019-01-14T10:58:43.122Z,140
2019-01-14T10:59:53.207Z,130
2019-01-14T11:01:03.417Z,145
2019-01-14T11:02:13.278Z,195
2019-01-14T11:03:23.408Z,190
2019-01-14T11:04:33.628Z,190
2019-01-14T11:05:43.553Z,190
2019-01-14T11:06:53.465Z,190
2019-01-14T11:08:05.682Z,185
2019-01-14T12:08:41.512Z,110
2019-01-14T12:09:51.815Z,110
2019-01-14T12:11:03.349Z,105
2019-01-14T12:12:13.397Z,105
2019-01-14T12:13:23.468Z,120
2019-01-14T12:14:33.275Z,120
2019-01-14T12:15:43.330Z,115
2019-01-14T12:16:53.416Z,120
2019-01-14T12:18:03.518Z,135
2019-01-14T12:19:13.580Z,145
2019-01-14T12:20:23.910Z,165
2019-01-14T12:21:34.202Z,170
2019-01-14T12:22:44.726Z,180
2019-01-14T12:23:55.246Z,180
2019-01-14T12:25:05.144Z,195
2019-01-14T12:26:15.189Z,195
2019-01-14T12:27:25.466Z,185
2019-01-14T12:28:35.552Z,305
2019-01-14T12:29:45.625Z,380
2019-01-14T12:30:55.740Z,360
2019-01-14T12:32:05.859Z,355
2019-01-14T12:33:16.427Z,365
2019-01-14T12:34:26.528Z,355
2019-01-14T12:35:37.042Z,360
2019-01-14T12:36:47.106Z,170
2019-01-14T12:37:57.183Z,130
2019-01-14T12:39:07.277Z,195
2019-01-14T12:40:17.538Z,135
2019-01-14T12:41:27.589Z,135
2019-01-14T12:42:37.381Z,120
2019-01-14T12:43:47.207Z,105
2019-01-14T12:44:57.339Z,100
2019-01-14T12:46:07.812Z,100
2019-01-14T12:47:18.240Z,90
2019-01-14T12:48:30.352Z,85
2019-01-14T12:49:40.689Z,80
2019-01-14T12:50:50.743Z,75
2019-01-14T12:52:01.020Z,65
2019-01-14T12:53:11.439Z,75
2019-01-14T12:54:21.530Z,40
2019-01-14T12:55:31.628Z,40
2019-01-14T12:56:41.918Z,40
2019-01-14T12:57:51.756Z,40
2019-01-14T12:59:01.831Z,45
2019-01-14T13:00:12.707Z,40
2019-01-14T13:01:22.854Z,40
2019-01-14T13:02:32.723Z,40
2019-01-14T13:03:42.833Z,30
2019-01-14T13:04:53.013Z,25
2019-01-14T13:06:03.391Z,25
2019-01-14T13:07:13.477Z,20
2019-01-14T13:08:23.317Z,15
2019-01-14T13:09:36.762Z,15
2019-01-14T13:10:47.630Z,20
2019-01-14T13:11:57.695Z,35
2019-01-14T13:13:07.789Z,40
2019-01-14T13:14:18.121Z,40
2019-01-14T13:15:28.392Z,40
2019-01-14T13:47:14.857Z,25
2019-01-14T13:48:25.141Z,30
2019-01-14T13:49:35.368Z,25
2019-01-14T13:50:45.664Z,25
2019-01-14T13:51:56.652Z,25
2019-01-14T13:53:06.865Z,20
2019-01-14T13:54:17.694Z,20
2019-01-14T13:55:29.012Z,15
2019-01-14T13:56:39.446Z,15
2019-01-14T13:57:50.324Z,10
2019-01-14T13:59:00.610Z,10
2019-01-14T14:00:11.410Z,10
2019-01-14T14:01:22.409Z,10
2019-01-14T14:02:33.759Z,10
2019-01-14T14:03:45.137Z,10
2019-01-14T14:04:54.980Z,15
2019-01-14T14:06:07.946Z,15
2019-01-14T14:07:18.002Z,15
2019-01-14T14:08:28.744Z,15
2019-01-14T14:09:45.865Z,20
2019-01-14T14:10:56.727Z,20
2019-01-14T14:12:06.988Z,20
2019-01-14T14:13:18.335Z,20
2019-01-14T14:14:29.931Z,25
2019-01-14T14:15:43.264Z,30
2019-01-14T14:16:54.637Z,35
2019-01-14T14:18:06.479Z,35
2019-01-14T14:19:17.496Z,35
2019-01-14T14:20:29.503Z,35
2019-01-14T14:21:40.020Z,30
2019-01-14T14:22:50.669Z,30
2019-01-14T14:24:00.827Z,35
2019-01-14T14:25:12.002Z,35
2019-01-14T14:26:24.980Z,35
2019-01-14T14:27:35.280Z,30
2019-01-14T14:28:46.041Z,25
2019-01-14T14:29:56.097Z,20
2019-01-14T14:31:06.990Z,20
2019-01-14T14:32:16.847Z,20
2019-01-14T14:33:27.113Z,25
2019-01-14T14:34:38.257Z,25
2019-01-14T14:35:49.036Z,20
2019-01-14T14:37:03.343Z,20
2019-01-14T14:38:13.636Z,15
2019-01-14T14:39:23.827Z,15
2019-01-14T14:40:33.843Z,15
2019-01-14T14:41:46.058Z,10
2019-01-14T14:43:11.833Z,10
2019-01-14T14:44:25.041Z,5
2019-01-14T14:45:36.417Z,5
2019-01-14T14:46:47.587Z,5
2019-01-14T14:47:57.919Z,5
2019-01-14T14:49:10.573Z,5
2019-01-14T14:50:21.314Z,5
2019-01-14T14:51:31.989Z,5
2019-01-14T14:52:43.579Z,5
2019-01-14T14:53:54.055Z,5
2019-01-14T14:55:04.473Z,5
2019-01-14T14:56:15.055Z,0
2019-01-14T14:57:26.013Z,0
2019-01-14T14:58:36.772Z,0
2019-01-14T14:59:48.143Z,0
2019-01-14T15:00:59.077Z,0
2019-01-14T15:02:09.162Z,0
2019-01-14T15:03:19.972Z,0
2019-01-14T15:04:30.550Z,0
2019-01-14T15:05:41.466Z,5
2019-01-14T15:06:51.839Z,5
2019-01-14T15:08:05.412Z,0
2019-01-14T15:09:16.080Z,0
2019-01-14T15:10:27.237Z,0
2019-01-14T15:11:38.046Z,0
2019-01-14T15:12:48.555Z,0
2019-01-14T15:13:58.855Z,0
2019-01-14T15:15:09.125Z,0
2019-01-14T15:16:19.759Z,0
2019-01-14T15:17:31.676Z,0
2019-01-14T15:18:42.169Z,0
2019-01-14T15:19:53.092Z,0
2019-01-14T15:21:03.967Z,0
2019-01-14T15:22:14.696Z,0
2019-01-14T15:23:25.188Z,0
2019-01-14T15:24:36.602Z,0
2019-01-14T15:25:46.424Z,0
2019-01-14T15:26:57.967Z,0
2019-01-14T15:28:08.450Z,0
2019-01-14T15:29:18.717Z,0
2019-01-14T15:30:29.806Z,0
2019-01-14T15:31:40.555Z,0
2019-01-14T15:32:51.317Z,0
2019-01-14T15:34:02.265Z,0
2019-01-14T15:35:13.447Z,0
2019-01-14T15:36:25.519Z,0
2019-01-14T15:37:37.210Z,0
2019-01-14T15:38:47.998Z,0
2019-01-14T15:40:05.889Z,0
2019-01-14T15:41:20.771Z,0
2019-01-14T15:42:32.057Z,0
2019-01-14T15:43:44.442Z,0
2019-01-14T15:44:56.371Z,0
2019-01-14T15:46:10.268Z,0
2019-01-14T15:47:22.397Z,0
2019-01-14T15:48:34.662Z,0
2019-01-14T15:49:46.211Z,0
2019-01-14T15:50:58.910Z,0
2019-01-14T15:52:12.230Z,0
2019-01-14T15:53:25.098Z,0
2019-01-14T15:54:40.042Z,0
2019-01-14T15:55:52.004Z,0
2019-01-14T15:57:07.854Z,0
2019-01-14T15:58:21.994Z,0
2019-01-14T15:59:33.700Z,0
2019-01-14T16:00:44.943Z,0
2019-01-14T16:01:56.446Z,0
2019-01-14T16:03:10.050Z,0
2019-01-14T16:04:23.570Z,0
2019-01-14T16:05:33.792Z,0
2019-01-14T16:06:43.390Z,0
2019-01-14T16:07:53.234Z,0
2019-01-14T16:09:05.961Z,0
2019-01-14T16:10:20.037Z,0
2019-01-14T16:11:30.121Z,0
2019-01-14T16:12:39.979Z,0
2019-01-14T16:13:50.052Z,0
2019-01-14T16:15:00.348Z,0
2019-01-14T16:16:11.333Z,0
2019-01-14T16:17:21.428Z,0
2019-01-14T16:18:31.259Z,0
2019-01-14T16:19:41.324Z,0
2019-01-14T16:20:51.225Z,0
2019-01-14T16:22:01.315Z,0
2019-01-14T16:23:11.661Z,0
2019-01-14T16:24:21.737Z,0
2019-01-14T16:25:31.609Z,0
2019-01-14T16:26:41.758Z,0
2019-01-14T16:27:51.870Z,0
2019-01-14T16:29:01.692Z,0
2019-01-14T16:30:11.754Z,0
2019-01-14T16:31:21.821Z,0
2019-01-14T16:32:31.904Z,0
2019-01-14T16:33:41.992Z,0
2019-01-14T16:34:52.760Z,0
2019-01-14T16:36:02.983Z,0
2019-01-14T16:37:13.167Z,0
2019-01-14T16:38:23.305Z,0
2019-01-14T16:39:33.765Z,0
2019-01-14T16:40:43.839Z,0
2019-01-14T16:41:54.002Z,0
2019-01-14T16:43:04.478Z,0
2019-01-14T16:44:14.388Z,0
2019-01-14T16:45:24.480Z,0
2019-01-14T16:46:35.643Z,0
2019-01-14T16:47:45.822Z,0
2019-01-14T16:48:55.680Z,0
2019-01-14T16:50:06.075Z,0
2019-01-14T16:51:15.866Z,0
2019-01-14T16:52:25.692Z,0
2019-01-14T16:53:35.594Z,0
2019-01-14T16:54:45.407Z,0
2019-01-14T16:55:55.255Z,0
2019-01-14T16:57:05.344Z,0
2019-01-14T16:58:15.166Z,0
2019-01-14T16:59:25.265Z,0
2019-01-14T17:00:35.363Z,0
2019-01-14T17:01:45.527Z,0
2019-01-14T17:02:55.625Z,0
2019-01-14T17:04:05.700Z,0
2019-01-14T17:05:21.699Z,0
2019-01-14T17:06:31.795Z,0
2019-01-14T17:07:41.644Z,0
2019-01-14T17:08:51.733Z,0
2019-01-14T17:10:01.842Z,0
2019-01-14T17:11:11.682Z,0
2019-01-14T17:12:21.769Z,0
2019-01-14T17:13:31.956Z,0
2019-01-14T17:14:41.527Z,0
2019-01-14T17:15:51.598Z,0
2019-01-14T17:17:01.670Z,0
2019-01-14T17:18:12.443Z,0
2019-01-14T17:19:22.386Z,0
2019-01-14T17:20:32.923Z,0
2019-01-14T17:21:42.872Z,0
2019-01-14T17:22:53.000Z,0
2019-01-14T17:24:03.084Z,0
2019-01-14T17:25:13.245Z,0
2019-01-14T17:26:23.961Z,0
2019-01-14T17:27:34.091Z,0
2019-01-14T17:28:44.182Z,0
2019-01-14T17:29:55.609Z,0
2019-01-14T17:31:06.477Z,0
2019-01-14T17:32:16.612Z,0
2019-01-14T17:33:26.535Z,0
2019-01-14T17:34:36.972Z,0
2019-01-14T17:35:46.914Z,0
2019-01-14T17:36:57.075Z,0
2019-01-14T17:38:07.865Z,0
2019-01-14T17:39:18.011Z,0
2019-01-14T17:40:34.883Z,0
2019-01-14T17:41:44.983Z,0
2019-01-14T17:42:55.466Z,0
2019-01-14T17:44:05.549Z,0
2019-01-14T17:45:15.677Z,0
2019-01-14T17:46:25.888Z,0
2019-01-14T17:47:35.954Z,0
2019-01-14T17:48:46.413Z,0
2019-01-14T17:49:56.512Z,0
2019-01-14T17:51:06.431Z,0
2019-01-14T17:52:16.538Z,0
2019-01-14T17:53:26.675Z,0
2019-01-14T17:54:36.808Z,0
2019-01-14T17:55:46.937Z,0
2019-01-14T17:56:57.037Z,0
2019-01-14T17:58:06.612Z,0
2019-01-14T17:59:16.753Z,0
2019-01-14T18:00:27.151Z,0
2019-01-14T18:01:37.265Z,0
2019-01-14T18:02:47.365Z,0
2019-01-14T18:03:57.498Z,0
2019-01-14T18:05:07.607Z,0
2019-01-14T18:06:17.778Z,0
2019-01-14T18:07:27.905Z,0
2019-01-14T18:08:38.027Z,0
2019-01-14T18:09:48.134Z,0
2019-01-14T18:11:04.231Z,0
2019-01-14T18:12:14.350Z,0
2019-01-14T18:13:24.491Z,0
2019-01-14T18:14:34.385Z,0
2019-01-14T18:15:44.489Z,0
2019-01-14T18:16:54.633Z,0
2019-01-14T18:18:04.914Z,0
2019-01-14T18:19:15.103Z,0
2019-01-14T18:20:25.274Z,0
2019-01-14T18:21:35.425Z,0
2019-01-14T18:22:45.681Z,0
2019-01-14T18:23:55.933Z,0
2019-01-14T18:25:07.814Z,0
2019-01-14T18:26:18.297Z,0
2019-01-14T18:27:28.457Z,0
2019-01-14T18:28:38.672Z,0
2019-01-14T18:29:48.861Z,0
2019-01-14T18:30:59.372Z,0
2019-01-14T18:32:09.475Z,0
2019-01-14T18:33:20.024Z,0
2019-01-14T18:34:30.285Z,0
2019-01-14T18:35:40.458Z,0
2019-01-14T18:36:50.627Z,0
2019-01-14T18:38:02.019Z,0
2019-01-14T18:39:12.798Z,0
2019-01-14T18:40:23.956Z,0
2019-01-14T18:41:34.178Z,0
2019-01-14T18:42:44.299Z,0
2019-01-14T18:43:54.995Z,0
2019-01-14T18:45:05.208Z,0
2019-01-14T18:46:15.561Z,0
2019-01-14T18:47:25.738Z,0
2019-01-14T18:48:36.366Z,0
2019-01-14T18:49:46.661Z,0
2019-01-14T18:50:57.478Z,0
2019-01-14T18:52:08.746Z,0
2019-01-14T18:53:18.913Z,0
2019-01-14T18:54:29.087Z,0
2019-01-14T18:55:39.269Z,0
2019-01-14T18:56:49.129Z,0
2019-01-14T18:57:59.340Z,0
2019-01-14T18:59:10.515Z,0
2019-01-14T19:00:21.319Z,0
2019-01-14T19:01:31.523Z,0